Time;durP1;ratioP1;P1;durP2;ratioP2;P2;SDS_P1;SDS_P2;PMS_P1;PMS_P2;Temp;Humidity;BMP_temperature;BMP_pressure;BME280_temperature;BME280_humidity;BME280_pressure;Samples;Min_cycle;Max_cycle;Signal;HPM_P1;HPM_P2
2023/01/14 15:23:49;;;;;;;7.18;4.53;;;7.70;91.40;;;;;;7566146;19;23163;-71
2023/01/14 15:26:28;;;;;;;15.05;8.60;;;7.50;92.20;;;;;;7571915;19;23750;-72
2023/01/14 15:29:01;;;;;;;7.75;4.85;;;7.40;92.90;;;;;;7571994;19;23465;-71
2023/01/14 15:31:36;;;;;;;9.85;5.05;;;7.40;92.90;;;;;;7583038;19;23420;-72
2023/01/14 15:34:17;;;;;;;11.90;5.28;;;7.50;93.20;;;;;;7589437;19;24250;-71
2023/01/14 15:37:10;;;;;;;10.38;4.45;;;7.50;93.90;;;;;;7575615;19;24151;-72
2023/01/14 15:39:43;;;;;;;;;;;7.40;94.30;;;;;;7586616;19;24063;-71
2023/01/14 15:42:23;;;;;;;8.60;5.43;;;7.30;94.90;;;;;;7582288;19;23612;-68
2023/01/14 15:44:58;;;;;;;10.25;6.05;;;7.40;95.00;;;;;;7573301;19;22726;-71
2023/01/14 15:47:30;;;;;;;8.45;5.70;;;7.50;95.00;;;;;;7558929;19;23359;-70
2023/01/14 15:50:03;;;;;;;8.57;5.97;;;7.50;95.10;;;;;;7578203;19;24321;-70
2023/01/14 15:52:36;;;;;;;8.57;5.18;;;7.40;95.60;;;;;;7566843;19;22717;-70
2023/01/14 15:55:15;;;;;;;8.75;5.45;;;7.30;95.90;;;;;;7576042;19;23876;-70
2023/01/14 15:57:51;;;;;;;7.43;5.13;;;7.30;96.60;;;;;;7558645;19;24048;-70
2023/01/14 16:00:26;;;;;;;8.00;5.05;;;7.20;97.20;;;;;;7540232;19;26697;-71
2023/01/14 16:03:27;;;;;;;8.05;4.50;;;7.20;97.50;;;;;;7536727;19;26000;-71
2023/01/14 16:06:00;;;;;;;15.73;4.40;;;7.10;98.00;;;;;;7538068;19;25475;-71
2023/01/14 16:08:32;;;;;;;7.82;4.80;;;7.10;98.30;;;;;;7553458;19;23921;-72
2023/01/14 16:11:05;;;;;;;8.55;5.25;;;7.10;98.80;;;;;;7553974;19;24677;-70
2023/01/14 16:13:38;;;;;;;8.50;5.25;;;7.00;99.40;;;;;;7549714;19;24501;-72
2023/01/14 16:16:14;;;;;;;7.90;5.35;;;6.90;99.90;;;;;;7535975;19;24198;-71
2023/01/14 16:18:46;;;;;;;11.70;6.20;;;6.90;99.90;;;;;;7573677;19;24003;-72
2023/01/14 16:21:20;;;;;;;14.35;6.20;;;6.90;99.90;;;;;;7578225;19;23560;-70
2023/01/14 16:23:52;;;;;;;;;;;6.90;99.90;;;;;;7584978;19;23309;-71
2023/01/14 16:26:24;;;;;;;13.23;6.50;;;6.90;99.90;;;;;;7570654;19;23224;-71
2023/01/14 16:28:56;;;;;;;18.67;10.73;;;6.90;99.90;;;;;;7574675;19;23473;-72
2023/01/14 16:31:29;;;;;;;20.70;11.35;;;6.90;99.90;;;;;;7557629;19;25147;-71
2023/01/14 16:34:01;;;;;;;17.52;9.88;;;6.80;99.90;;;;;;7552721;19;22991;-71
2023/01/14 16:36:37;;;;;;;15.85;9.07;;;6.80;99.90;;;;;;7507535;19;22712;-71
2023/01/14 16:39:15;;;;;;;17.50;9.27;;;6.80;99.90;;;;;;7542234;19;23341;-70
2023/01/14 16:41:47;;;;;;;15.20;9.38;;;6.80;99.90;;;;;;7484021;19;23178;-72
2023/01/14 16:44:20;;;;;;;17.52;9.93;;;6.90;99.90;;;;;;7478663;19;23210;-72
2023/01/14 16:46:53;;;;;;;24.08;11.35;;;6.90;99.90;;;;;;7483460;19;23852;-70
2023/01/14 16:49:25;;;;;;;21.00;12.00;;;6.90;99.90;;;;;;7511622;19;23142;-72
2023/01/14 16:51:58;;;;;;;19.35;11.35;;;6.80;99.90;;;;;;7493756;19;23276;-71
2023/01/14 16:54:31;;;;;;;18.98;10.32;;;6.80;99.90;;;;;;7529314;19;22218;-71
2023/01/14 16:57:04;;;;;;;15.95;8.95;;;6.80;99.90;;;;;;7508938;19;22753;-71
2023/01/14 16:59:37;;;;;;;13.75;8.13;;;6.80;99.90;;;;;;7524678;19;22502;-71
2023/01/14 17:02:13;;;;;;;16.60;10.05;;;6.80;99.90;;;;;;7472941;19;26430;-72
2023/01/14 17:04:46;;;;;;;19.63;10.70;;;6.80;99.90;;;;;;7494801;19;24781;-71
2023/01/14 17:07:18;;;;;;;14.23;7.93;;;6.80;99.90;;;;;;7518756;19;23816;-71
2023/01/14 17:09:51;;;;;;;22.67;10.98;;;6.90;99.90;;;;;;7524412;19;24796;-70
2023/01/14 17:12:39;;;;;;;20.58;10.57;;;6.90;99.90;;;;;;7516002;19;24119;-71
2023/01/14 17:15:49;;;;;;;21.15;9.80;;;6.90;99.90;;;;;;7557828;19;21456;-71
2023/01/14 17:18:23;;;;;;;;;;;7.00;99.90;;;;;;7597743;19;20013;-70
2023/01/14 17:20:55;;;;;;;23.40;10.00;;;7.00;99.00;;;;;;7582987;19;19918;-69
2023/01/14 17:23:27;;;;;;;21.40;9.32;;;7.10;98.10;;;;;;7571286;19;20969;-70
2023/01/14 17:26:08;;;;;;;9.85;5.07;;;7.20;96.00;;;;;;7583623;19;20018;-72
2023/01/14 17:28:41;;;;;;;11.23;5.53;;;7.10;95.30;;;;;;7583319;19;20018;-72
2023/01/14 17:31:16;;;;;;;11.10;5.65;;;7.10;94.80;;;;;;7580594;19;20015;-70
2023/01/14 17:33:53;;;;;;;10.57;5.30;;;7.10;95.00;;;;;;7567653;19;20623;-72
2023/01/14 17:36:25;;;;;;;10.02;4.88;;;7.20;94.20;;;;;;7586413;19;20546;-72
2023/01/14 17:38:58;;;;;;;8.77;4.17;;;7.20;93.50;;;;;;7591936;19;21147;-70
2023/01/14 17:44:21;;;;;;;8.13;4.93;;;7.20;93.10;;;;;;7602598;19;20833;-72
2023/01/14 17:46:53;;;;;;;8.25;4.57;;;7.20;92.40;;;;;;7608139;19;20010;-71
2023/01/14 17:49:26;;;;;;;11.90;5.82;;;7.20;92.20;;;;;;7612444;19;20052;-71
2023/01/14 17:52:00;;;;;;;14.55;6.13;;;7.20;92.10;;;;;;7618806;19;20659;-71
2023/01/14 17:54:33;;;;;;;15.77;7.13;;;7.30;91.40;;;;;;7600678;19;20066;-72
2023/01/14 17:57:18;;;;;;;14.48;7.63;;;7.30;91.70;;;;;;7575919;19;20021;-71
2023/01/14 17:59:51;;;;;;;36.33;15.10;;;7.20;91.70;;;;;;7580700;19;20022;-72
2023/01/14 18:02:25;;;;;;;23.05;9.82;;;7.30;91.20;;;;;;7592435;19;20022;-72
2023/01/14 18:04:57;;;;;;;23.47;10.00;;;7.30;90.90;;;;;;7605523;19;20018;-70
2023/01/14 18:07:30;;;;;;;;;;;7.40;90.50;;;;;;7597629;19;20049;-72
2023/01/14 18:10:04;;;;;;;23.25;9.10;;;7.30;90.40;;;;;;7604427;19;19918;-71
2023/01/14 18:12:36;;;;;;;;;;;7.30;89.60;;;;;;7613950;19;20010;-71
2023/01/14 18:15:09;;;;;;;22.45;7.82;;;7.40;89.20;;;;;;7602626;19;19927;-70
2023/01/14 18:17:42;;;;;;;23.10;11.63;;;7.30;90.10;;;;;;7588172;19;20054;-72
2023/01/14 18:20:16;;;;;;;18.73;9.68;;;7.30;90.00;;;;;;7585666;19;21444;-71
2023/01/14 18:22:48;;;;;;;18.70;8.98;;;7.30;90.10;;;;;;7586554;19;20006;-71
2023/01/14 18:25:22;;;;;;;15.55;7.32;;;7.30;90.00;;;;;;7587200;19;20050;-72
2023/01/14 18:27:56;;;;;;;18.55;8.48;;;7.30;89.80;;;;;;7577378;19;20021;-72
2023/01/14 18:30:30;;;;;;;18.38;9.05;;;7.20;90.20;;;;;;7564806;19;20017;-73
2023/01/14 18:33:04;;;;;;;14.60;6.68;;;7.20;89.90;;;;;;7575765;19;20007;-72
2023/01/14 18:35:36;;;;;;;13.48;6.57;;;7.20;89.50;;;;;;7564727;19;20034;-72
2023/01/14 18:38:12;;;;;;;13.57;7.03;;;7.20;86.60;;;;;;7579097;19;20361;-70
2023/01/14 18:40:45;;;;;;;11.13;5.75;;;7.30;85.60;;;;;;7565547;19;21099;-70
2023/01/14 18:43:17;;;;;;;11.55;5.00;;;7.40;84.40;;;;;;7572513;19;22261;-74
2023/01/14 18:45:49;;;;;;;8.10;4.60;;;7.50;82.90;;;;;;7567388;19;20007;-73
2023/01/14 18:48:22;;;;;;;7.25;4.28;;;7.60;82.00;;;;;;7573074;19;20025;-71
2023/01/14 18:50:55;;;;;;;11.13;4.45;;;7.80;78.80;;;;;;7578530;19;20010;-71
2023/01/14 18:53:27;;;;;;;9.20;5.00;;;7.80;78.70;;;;;;7577074;19;20033;-70
2023/01/14 18:56:04;;;;;;;10.18;4.82;;;7.90;78.50;;;;;;7566877;19;20099;-72
2023/01/14 18:58:40;;;;;;;7.57;4.63;;;7.90;76.40;;;;;;7591106;19;20023;-72
2023/01/14 19:01:20;;;;;;;10.18;4.88;;;8.00;76.20;;;;;;7579462;19;20470;-72
2023/01/14 19:03:53;;;;;;;8.05;4.50;;;8.10;75.60;;;;;;7572642;19;20453;-71
2023/01/14 19:06:27;;;;;;;7.53;4.18;;;8.10;74.60;;;;;;7567851;19;20006;-71
2023/01/14 19:09:01;;;;;;;6.03;4.28;;;8.10;74.60;;;;;;7573705;19;20031;-70
2023/01/14 19:14:40;;;;;;;5.85;3.17;;;8.40;72.50;;;;;;7549525;19;20010;-71
2023/01/14 19:17:14;;;;;;;9.25;4.22;;;8.30;74.60;;;;;;7567889;19;20612;-70
2023/01/14 19:19:47;;;;;;;9.25;4.80;;;8.20;75.50;;;;;;7568863;19;20507;-71
2023/01/14 19:22:20;;;;;;;7.65;4.30;;;8.20;74.00;;;;;;7558812;19;20019;-71
2023/01/14 19:24:53;;;;;;;7.25;4.07;;;8.30;74.30;;;;;;7559620;19;20010;-71
2023/01/14 19:27:25;;;;;;;9.45;3.92;;;8.20;73.80;;;;;;7521342;19;20159;-70
2023/01/14 19:29:59;;;;;;;6.82;3.92;;;8.30;73.80;;;;;;7541731;19;20010;-71
2023/01/14 19:32:32;;;;;;;10.25;3.83;;;8.30;73.90;;;;;;7551843;19;20014;-72
2023/01/14 19:35:06;;;;;;;7.95;3.90;;;8.30;73.60;;;;;;7553386;19;20019;-71
2023/01/14 19:37:42;;;;;;;6.25;4.15;;;8.30;72.90;;;;;;7555334;19;20045;-71
2023/01/14 19:40:14;;;;;;;8.25;4.53;;;8.40;72.60;;;;;;7541643;19;20064;-73
2023/01/14 19:42:48;;;;;;;7.60;4.30;;;8.40;72.60;;;;;;7571047;19;20458;-71
2023/01/14 19:45:20;;;;;;;9.75;4.43;;;8.40;71.90;;;;;;7577493;19;20022;-71
2023/01/14 19:47:53;;;;;;;7.63;3.80;;;8.50;71.20;;;;;;7566387;19;20018;-71
2023/01/14 19:50:26;;;;;;;7.65;3.97;;;8.50;70.40;;;;;;7579422;19;20049;-69
2023/01/14 19:52:59;;;;;;;6.57;3.58;;;8.50;70.50;;;;;;7576311;19;20022;-70
2023/01/14 19:55:31;;;;;;;6.18;4.00;;;8.60;69.80;;;;;;7553780;19;20089;-69
2023/01/14 19:58:04;;;;;;;6.03;3.10;;;8.50;69.70;;;;;;7578701;19;20025;-71
2023/01/14 20:00:37;;;;;;;4.70;2.77;;;8.60;69.90;;;;;;7569171;19;20014;-71
2023/01/14 20:03:12;;;;;;;4.68;2.70;;;8.60;69.40;;;;;;7564547;19;20043;-72
2023/01/14 20:05:46;;;;;;;4.35;2.40;;;8.70;69.20;;;;;;7544809;19;20445;-70
2023/01/14 20:08:18;;;;;;;6.32;2.42;;;8.70;68.70;;;;;;7542939;19;20499;-70
2023/01/14 20:10:51;;;;;;;4.30;2.53;;;8.80;69.10;;;;;;7558825;19;20640;-71
2023/01/14 20:13:24;;;;;;;3.90;2.58;;;8.80;68.80;;;;;;7581654;19;20017;-72
2023/01/14 20:16:02;;;;;;;4.38;2.40;;;8.80;68.50;;;;;;7582393;19;21079;-70
2023/01/14 20:18:36;;;;;;;5.05;2.28;;;8.90;69.00;;;;;;7530270;19;20531;-69
2023/01/14 20:21:13;;;;;;;6.35;3.05;;;8.80;68.90;;;;;;7549717;19;20018;-70
